sensor_id;sensor_type;location;lat;lon;timestamp;P1;durP1;ratioP1;P2;durP2;ratioP2
21170;SDS011;10743;52.160;20.910;2022-09-29T00:01:03;8.38;;;5.63;;
21170;SDS011;10743;52.160;20.910;2022-09-29T00:03:31;10.53;;;6.47;;
21170;SDS011;10743;52.160;20.910;2022-09-29T00:05:58;10.48;;;6.03;;
21170;SDS011;10743;52.160;20.910;2022-09-29T00:08:26;10.48;;;6.40;;
21170;SDS011;10743;52.160;20.910;2022-09-29T00:10:55;8.40;;;5.77;;
21170;SDS011;10743;52.160;20.910;2022-09-29T00:13:22;9.75;;;5.47;;
21170;SDS011;10743;52.160;20.910;2022-09-29T00:15:59;10.30;;;6.27;;
21170;SDS011;10743;52.160;20.910;2022-09-29T00:18:27;7.80;;;5.30;;
21170;SDS011;10743;52.160;20.910;2022-09-29T00:21:05;8.60;;;5.53;;
21170;SDS011;10743;52.160;20.910;2022-09-29T00:23:36;9.00;;;5.88;;
21170;SDS011;10743;52.160;20.910;2022-09-29T00:26:04;7.63;;;5.05;;
21170;SDS011;10743;52.160;20.910;2022-09-29T00:28:38;10.03;;;5.50;;
21170;SDS011;10743;52.160;20.910;2022-09-29T00:31:08;8.00;;;5.43;;
21170;SDS011;10743;52.160;20.910;2022-09-29T00:33:37;7.80;;;4.93;;
21170;SDS011;10743;52.160;20.910;2022-09-29T00:36:06;9.10;;;5.35;;
21170;SDS011;10743;52.160;20.910;2022-09-29T00:38:38;8.07;;;5.25;;
21170;SDS011;10743;52.160;20.910;2022-09-29T00:41:06;8.40;;;5.53;;
21170;SDS011;10743;52.160;20.910;2022-09-29T00:43:54;8.15;;;5.38;;
21170;SDS011;10743;52.160;20.910;2022-09-29T00:46:40;8.27;;;5.28;;
21170;SDS011;10743;52.160;20.910;2022-09-29T00:49:51;8.23;;;5.65;;
21170;SDS011;10743;52.160;20.910;2022-09-29T00:52:33;9.00;;;5.85;;
21170;SDS011;10743;52.160;20.910;2022-09-29T00:55:09;6.82;;;5.13;;
21170;SDS011;10743;52.160;20.910;2022-09-29T00:57:48;6.88;;;5.43;;
21170;SDS011;10743;52.160;20.910;2022-09-29T01:00:22;9.40;;;5.10;;
21170;SDS011;10743;52.160;20.910;2022-09-29T01:02:51;8.97;;;5.20;;
21170;SDS011;10743;52.160;20.910;2022-09-29T01:05:29;7.22;;;5.20;;
21170;SDS011;10743;52.160;20.910;2022-09-29T01:08:01;8.38;;;5.72;;
21170;SDS011;10743;52.160;20.910;2022-09-29T01:10:38;8.57;;;5.13;;
21170;SDS011;10743;52.160;20.910;2022-09-29T01:13:06;8.85;;;5.70;;
21170;SDS011;10743;52.160;20.910;2022-09-29T01:15:34;9.03;;;4.90;;
21170;SDS011;10743;52.160;20.910;2022-09-29T01:18:01;7.18;;;4.80;;
21170;SDS011;10743;52.160;20.910;2022-09-29T01:20:29;8.77;;;5.32;;
21170;SDS011;10743;52.160;20.910;2022-09-29T01:34:45;7.57;;;5.60;;
21170;SDS011;10743;52.160;20.910;2022-09-29T01:37:59;8.57;;;5.20;;
21170;SDS011;10743;52.160;20.910;2022-09-29T01:41:05;7.47;;;5.27;;
21170;SDS011;10743;52.160;20.910;2022-09-29T01:44:04;9.53;;;5.73;;
21170;SDS011;10743;52.160;20.910;2022-09-29T01:47:05;8.67;;;5.17;;
21170;SDS011;10743;52.160;20.910;2022-09-29T01:49:39;10.83;;;6.20;;
21170;SDS011;10743;52.160;20.910;2022-09-29T01:52:12;8.57;;;5.87;;
21170;SDS011;10743;52.160;20.910;2022-09-29T01:54:46;12.43;;;6.50;;
21170;SDS011;10743;52.160;20.910;2022-09-29T01:57:33;9.83;;;5.93;;
21170;SDS011;10743;52.160;20.910;2022-09-29T02:00:11;8.73;;;5.60;;
21170;SDS011;10743;52.160;20.910;2022-09-29T02:02:45;8.77;;;5.83;;
21170;SDS011;10743;52.160;20.910;2022-09-29T02:05:38;8.03;;;5.80;;
21170;SDS011;10743;52.160;20.910;2022-09-29T02:08:19;11.57;;;6.17;;
21170;SDS011;10743;52.160;20.910;2022-09-29T02:11:01;9.90;;;6.03;;
21170;SDS011;10743;52.160;20.910;2022-09-29T02:13:32;10.05;;;6.22;;
21170;SDS011;10743;52.160;20.910;2022-09-29T02:16:10;10.80;;;6.03;;
21170;SDS011;10743;52.160;20.910;2022-09-29T02:18:57;11.63;;;5.60;;
21170;SDS011;10743;52.160;20.910;2022-09-29T02:21:48;10.90;;;6.40;;
21170;SDS011;10743;52.160;20.910;2022-09-29T02:24:20;8.83;;;5.73;;
21170;SDS011;10743;52.160;20.910;2022-09-29T02:26:47;10.53;;;6.17;;
21170;SDS011;10743;52.160;20.910;2022-09-29T02:29:15;11.70;;;6.40;;
21170;SDS011;10743;52.160;20.910;2022-09-29T02:31:43;11.00;;;6.40;;
21170;SDS011;10743;52.160;20.910;2022-09-29T02:34:13;13.70;;;6.50;;
21170;SDS011;10743;52.160;20.910;2022-09-29T02:39:53;9.47;;;6.10;;
21170;SDS011;10743;52.160;20.910;2022-09-29T02:43:04;12.47;;;6.20;;
21170;SDS011;10743;52.160;20.910;2022-09-29T02:48:54;9.43;;;5.90;;
21170;SDS011;10743;52.160;20.910;2022-09-29T02:51:49;8.40;;;5.67;;
21170;SDS011;10743;52.160;20.910;2022-09-29T02:54:27;11.30;;;6.33;;
21170;SDS011;10743;52.160;20.910;2022-09-29T02:57:30;9.03;;;5.53;;
21170;SDS011;10743;52.160;20.910;2022-09-29T03:00:12;9.43;;;5.87;;
21170;SDS011;10743;52.160;20.910;2022-09-29T03:02:41;12.03;;;6.67;;
21170;SDS011;10743;52.160;20.910;2022-09-29T03:05:14;14.10;;;6.23;;
21170;SDS011;10743;52.160;20.910;2022-09-29T03:07:46;9.17;;;5.90;;
21170;SDS011;10743;52.160;20.910;2022-09-29T03:10:14;10.27;;;6.10;;
21170;SDS011;10743;52.160;20.910;2022-09-29T03:12:43;11.40;;;6.40;;
21170;SDS011;10743;52.160;20.910;2022-09-29T03:15:10;9.77;;;5.97;;
21170;SDS011;10743;52.160;20.910;2022-09-29T03:17:37;9.23;;;6.27;;
21170;SDS011;10743;52.160;20.910;2022-09-29T03:20:05;9.00;;;5.67;;
21170;SDS011;10743;52.160;20.910;2022-09-29T03:22:34;11.37;;;6.20;;
21170;SDS011;10743;52.160;20.910;2022-09-29T03:25:01;9.70;;;6.23;;
21170;SDS011;10743;52.160;20.910;2022-09-29T03:27:31;9.93;;;6.37;;
21170;SDS011;10743;52.160;20.910;2022-09-29T03:29:59;9.75;;;6.47;;
21170;SDS011;10743;52.160;20.910;2022-09-29T03:32:26;9.52;;;6.13;;
21170;SDS011;10743;52.160;20.910;2022-09-29T03:34:52;9.37;;;6.60;;
21170;SDS011;10743;52.160;20.910;2022-09-29T03:37:19;9.97;;;6.87;;
21170;SDS011;10743;52.160;20.910;2022-09-29T03:39:46;14.27;;;7.63;;
21170;SDS011;10743;52.160;20.910;2022-09-29T03:42:13;11.03;;;7.03;;
21170;SDS011;10743;52.160;20.910;2022-09-29T03:44:41;11.10;;;7.37;;
21170;SDS011;10743;52.160;20.910;2022-09-29T03:47:08;12.17;;;7.47;;
21170;SDS011;10743;52.160;20.910;2022-09-29T03:49:35;15.30;;;8.10;;
21170;SDS011;10743;52.160;20.910;2022-09-29T03:52:02;13.20;;;7.57;;
21170;SDS011;10743;52.160;20.910;2022-09-29T03:54:28;11.90;;;7.57;;
21170;SDS011;10743;52.160;20.910;2022-09-29T03:56:55;15.37;;;8.37;;
21170;SDS011;10743;52.160;20.910;2022-09-29T03:59:22;12.33;;;8.10;;
21170;SDS011;10743;52.160;20.910;2022-09-29T04:01:49;14.50;;;8.80;;
21170;SDS011;10743;52.160;20.910;2022-09-29T04:04:16;12.47;;;8.40;;
21170;SDS011;10743;52.160;20.910;2022-09-29T04:06:43;13.40;;;8.67;;
21170;SDS011;10743;52.160;20.910;2022-09-29T04:09:10;12.00;;;8.20;;
21170;SDS011;10743;52.160;20.910;2022-09-29T04:11:37;13.93;;;7.73;;
21170;SDS011;10743;52.160;20.910;2022-09-29T04:14:04;12.53;;;7.90;;
21170;SDS011;10743;52.160;20.910;2022-09-29T04:16:31;13.47;;;7.90;;
21170;SDS011;10743;52.160;20.910;2022-09-29T04:18:58;12.33;;;7.80;;
21170;SDS011;10743;52.160;20.910;2022-09-29T04:21:25;12.80;;;8.40;;
21170;SDS011;10743;52.160;20.910;2022-09-29T04:23:52;11.87;;;7.80;;
21170;SDS011;10743;52.160;20.910;2022-09-29T04:26:19;12.20;;;7.77;;
21170;SDS011;10743;52.160;20.910;2022-09-29T04:28:46;11.87;;;7.23;;
21170;SDS011;10743;52.160;20.910;2022-09-29T04:31:13;11.00;;;7.17;;
21170;SDS011;10743;52.160;20.910;2022-09-29T04:33:40;11.00;;;6.70;;
21170;SDS011;10743;52.160;20.910;2022-09-29T04:36:07;11.90;;;7.50;;
21170;SDS011;10743;52.160;20.910;2022-09-29T04:38:34;11.40;;;7.20;;
21170;SDS011;10743;52.160;20.910;2022-09-29T04:41:02;12.63;;;7.87;;
21170;SDS011;10743;52.160;20.910;2022-09-29T04:43:29;12.63;;;7.67;;
21170;SDS011;10743;52.160;20.910;2022-09-29T04:46:00;13.80;;;8.23;;
21170;SDS011;10743;52.160;20.910;2022-09-29T04:48:32;16.50;;;9.03;;
21170;SDS011;10743;52.160;20.910;2022-09-29T04:51:01;14.80;;;8.37;;
21170;SDS011;10743;52.160;20.910;2022-09-29T04:53:29;12.73;;;8.00;;
21170;SDS011;10743;52.160;20.910;2022-09-29T04:55:57;12.70;;;7.60;;
21170;SDS011;10743;52.160;20.910;2022-09-29T04:58:25;12.00;;;8.00;;
21170;SDS011;10743;52.160;20.910;2022-09-29T05:00:51;15.67;;;9.17;;
21170;SDS011;10743;52.160;20.910;2022-09-29T05:03:19;18.67;;;9.73;;
21170;SDS011;10743;52.160;20.910;2022-09-29T05:05:45;18.73;;;10.07;;
21170;SDS011;10743;52.160;20.910;2022-09-29T05:08:12;17.90;;;9.53;;
21170;SDS011;10743;52.160;20.910;2022-09-29T05:10:39;14.90;;;8.43;;
21170;SDS011;10743;52.160;20.910;2022-09-29T05:13:06;14.27;;;8.00;;
21170;SDS011;10743;52.160;20.910;2022-09-29T05:15:33;13.43;;;7.03;;
21170;SDS011;10743;52.160;20.910;2022-09-29T05:18:01;14.13;;;7.63;;
21170;SDS011;10743;52.160;20.910;2022-09-29T05:20:28;13.20;;;6.73;;
21170;SDS011;10743;52.160;20.910;2022-09-29T05:23:07;12.87;;;7.13;;
21170;SDS011;10743;52.160;20.910;2022-09-29T05:25:36;15.50;;;7.07;;
21170;SDS011;10743;52.160;20.910;2022-09-29T05:28:06;12.77;;;7.40;;
21170;SDS011;10743;52.160;20.910;2022-09-29T05:30:34;15.43;;;8.80;;
21170;SDS011;10743;52.160;20.910;2022-09-29T05:33:02;15.27;;;8.57;;
21170;SDS011;10743;52.160;20.910;2022-09-29T05:35:30;19.20;;;9.87;;
21170;SDS011;10743;52.160;20.910;2022-09-29T05:37:57;21.37;;;9.40;;
21170;SDS011;10743;52.160;20.910;2022-09-29T05:40:24;16.87;;;8.53;;
21170;SDS011;10743;52.160;20.910;2022-09-29T05:42:52;15.40;;;8.90;;
21170;SDS011;10743;52.160;20.910;2022-09-29T05:45:19;16.13;;;9.63;;
21170;SDS011;10743;52.160;20.910;2022-09-29T05:47:46;19.53;;;10.17;;
21170;SDS011;10743;52.160;20.910;2022-09-29T05:50:13;15.67;;;8.80;;
21170;SDS011;10743;52.160;20.910;2022-09-29T05:52:40;12.93;;;8.00;;
21170;SDS011;10743;52.160;20.910;2022-09-29T05:55:07;15.03;;;7.10;;
21170;SDS011;10743;52.160;20.910;2022-09-29T05:57:35;13.40;;;7.33;;
21170;SDS011;10743;52.160;20.910;2022-09-29T06:00:02;13.97;;;7.53;;
21170;SDS011;10743;52.160;20.910;2022-09-29T06:02:36;12.87;;;7.40;;
21170;SDS011;10743;52.160;20.910;2022-09-29T06:05:03;13.83;;;8.73;;
21170;SDS011;10743;52.160;20.910;2022-09-29T06:07:31;23.10;;;11.13;;
21170;SDS011;10743;52.160;20.910;2022-09-29T06:09:58;23.90;;;13.23;;
21170;SDS011;10743;52.160;20.910;2022-09-29T06:12:25;27.97;;;12.67;;
21170;SDS011;10743;52.160;20.910;2022-09-29T06:14:52;26.43;;;12.20;;
21170;SDS011;10743;52.160;20.910;2022-09-29T06:17:19;16.60;;;9.30;;
21170;SDS011;10743;52.160;20.910;2022-09-29T06:19:46;15.07;;;9.00;;
21170;SDS011;10743;52.160;20.910;2022-09-29T06:22:13;14.80;;;8.80;;
21170;SDS011;10743;52.160;20.910;2022-09-29T06:24:39;15.73;;;9.23;;
21170;SDS011;10743;52.160;20.910;2022-09-29T06:27:06;14.27;;;8.47;;
21170;SDS011;10743;52.160;20.910;2022-09-29T06:29:33;15.38;;;8.07;;
21170;SDS011;10743;52.160;20.910;2022-09-29T06:32:00;13.97;;;8.33;;
21170;SDS011;10743;52.160;20.910;2022-09-29T06:34:28;13.70;;;7.90;;
21170;SDS011;10743;52.160;20.910;2022-09-29T06:36:55;13.93;;;8.30;;
21170;SDS011;10743;52.160;20.910;2022-09-29T06:39:41;17.73;;;10.27;;
21170;SDS011;10743;52.160;20.910;2022-09-29T06:42:08;17.57;;;10.90;;
21170;SDS011;10743;52.160;20.910;2022-09-29T06:44:36;16.73;;;10.23;;
21170;SDS011;10743;52.160;20.910;2022-09-29T06:47:02;27.03;;;14.50;;
21170;SDS011;10743;52.160;20.910;2022-09-29T06:49:29;19.43;;;11.00;;
21170;SDS011;10743;52.160;20.910;2022-09-29T06:51:56;18.37;;;10.60;;
21170;SDS011;10743;52.160;20.910;2022-09-29T06:54:24;14.60;;;8.97;;
21170;SDS011;10743;52.160;20.910;2022-09-29T06:56:51;17.47;;;8.83;;
21170;SDS011;10743;52.160;20.910;2022-09-29T06:59:20;15.13;;;8.60;;
21170;SDS011;10743;52.160;20.910;2022-09-29T07:01:48;16.50;;;9.67;;
21170;SDS011;10743;52.160;20.910;2022-09-29T07:04:17;15.77;;;9.10;;
21170;SDS011;10743;52.160;20.910;2022-09-29T07:06:46;15.30;;;8.73;;
21170;SDS011;10743;52.160;20.910;2022-09-29T07:09:14;15.43;;;9.27;;
21170;SDS011;10743;52.160;20.910;2022-09-29T07:11:42;17.17;;;9.37;;
21170;SDS011;10743;52.160;20.910;2022-09-29T07:14:15;18.43;;;8.47;;
21170;SDS011;10743;52.160;20.910;2022-09-29T07:16:44;18.47;;;9.50;;
21170;SDS011;10743;52.160;20.910;2022-09-29T07:19:14;14.10;;;8.67;;
21170;SDS011;10743;52.160;20.910;2022-09-29T07:21:44;15.23;;;8.40;;
21170;SDS011;10743;52.160;20.910;2022-09-29T07:24:12;13.97;;;8.37;;
21170;SDS011;10743;52.160;20.910;2022-09-29T07:26:39;15.47;;;9.10;;
21170;SDS011;10743;52.160;20.910;2022-09-29T07:29:06;15.07;;;8.77;;
21170;SDS011;10743;52.160;20.910;2022-09-29T07:31:40;17.23;;;8.37;;
21170;SDS011;10743;52.160;20.910;2022-09-29T07:34:17;17.37;;;9.40;;
21170;SDS011;10743;52.160;20.910;2022-09-29T07:36:45;18.67;;;8.93;;
21170;SDS011;10743;52.160;20.910;2022-09-29T07:39:13;16.48;;;9.45;;
21170;SDS011;10743;52.160;20.910;2022-09-29T07:41:40;13.23;;;7.93;;
21170;SDS011;10743;52.160;20.910;2022-09-29T07:44:07;14.50;;;7.60;;
21170;SDS011;10743;52.160;20.910;2022-09-29T07:46:34;13.03;;;7.97;;
21170;SDS011;10743;52.160;20.910;2022-09-29T07:49:01;13.85;;;7.50;;
21170;SDS011;10743;52.160;20.910;2022-09-29T07:51:28;11.90;;;7.43;;
21170;SDS011;10743;52.160;20.910;2022-09-29T07:53:55;12.20;;;7.43;;
21170;SDS011;10743;52.160;20.910;2022-09-29T07:56:30;12.97;;;8.00;;
21170;SDS011;10743;52.160;20.910;2022-09-29T07:58:58;12.70;;;7.37;;
21170;SDS011;10743;52.160;20.910;2022-09-29T08:01:27;11.23;;;7.10;;
21170;SDS011;10743;52.160;20.910;2022-09-29T08:03:54;10.37;;;6.90;;
21170;SDS011;10743;52.160;20.910;2022-09-29T08:06:22;13.50;;;7.27;;
21170;SDS011;10743;52.160;20.910;2022-09-29T08:08:50;12.40;;;7.17;;
21170;SDS011;10743;52.160;20.910;2022-09-29T08:11:31;11.87;;;7.50;;
21170;SDS011;10743;52.160;20.910;2022-09-29T08:14:01;12.77;;;8.30;;
21170;SDS011;10743;52.160;20.910;2022-09-29T08:16:28;10.63;;;7.43;;
21170;SDS011;10743;52.160;20.910;2022-09-29T08:18:56;14.77;;;7.83;;
21170;SDS011;10743;52.160;20.910;2022-09-29T08:21:24;11.93;;;7.13;;
21170;SDS011;10743;52.160;20.910;2022-09-29T08:23:52;11.07;;;6.90;;
21170;SDS011;10743;52.160;20.910;2022-09-29T08:26:20;10.25;;;6.80;;
21170;SDS011;10743;52.160;20.910;2022-09-29T08:29:04;10.35;;;6.85;;
21170;SDS011;10743;52.160;20.910;2022-09-29T08:31:34;11.40;;;6.73;;
21170;SDS011;10743;52.160;20.910;2022-09-29T08:34:03;11.77;;;7.23;;
21170;SDS011;10743;52.160;20.910;2022-09-29T08:36:31;10.43;;;6.45;;
21170;SDS011;10743;52.160;20.910;2022-09-29T08:38:58;12.60;;;7.13;;
21170;SDS011;10743;52.160;20.910;2022-09-29T08:44:25;11.73;;;6.53;;
21170;SDS011;10743;52.160;20.910;2022-09-29T08:50:27;11.60;;;7.00;;
21170;SDS011;10743;52.160;20.910;2022-09-29T08:53:04;10.73;;;6.03;;
21170;SDS011;10743;52.160;20.910;2022-09-29T08:55:51;12.70;;;6.67;;
21170;SDS011;10743;52.160;20.910;2022-09-29T08:58:23;10.87;;;6.70;;
21170;SDS011;10743;52.160;20.910;2022-09-29T09:00:53;9.73;;;6.63;;
21170;SDS011;10743;52.160;20.910;2022-09-29T09:03:55;11.53;;;6.00;;
21170;SDS011;10743;52.160;20.910;2022-09-29T09:21:18;9.95;;;6.18;;
21170;SDS011;10743;52.160;20.910;2022-09-29T09:23:52;8.77;;;5.75;;
21170;SDS011;10743;52.160;20.910;2022-09-29T09:29:04;8.80;;;5.68;;
21170;SDS011;10743;52.160;20.910;2022-09-29T09:31:52;9.03;;;6.30;;
21170;SDS011;10743;52.160;20.910;2022-09-29T09:34:27;8.50;;;5.95;;
21170;SDS011;10743;52.160;20.910;2022-09-29T09:37:18;9.57;;;5.97;;
21170;SDS011;10743;52.160;20.910;2022-09-29T09:40:05;8.37;;;5.80;;
21170;SDS011;10743;52.160;20.910;2022-09-29T09:42:56;7.28;;;5.07;;
21170;SDS011;10743;52.160;20.910;2022-09-29T09:45:50;12.05;;;6.18;;
21170;SDS011;10743;52.160;20.910;2022-09-29T09:48:32;8.43;;;5.78;;
21170;SDS011;10743;52.160;20.910;2022-09-29T09:51:19;7.13;;;5.22;;
21170;SDS011;10743;52.160;20.910;2022-09-29T09:54:20;10.98;;;5.78;;
21170;SDS011;10743;52.160;20.910;2022-09-29T10:00:09;10.18;;;5.53;;
21170;SDS011;10743;52.160;20.910;2022-09-29T10:02:50;8.68;;;5.85;;
21170;SDS011;10743;52.160;20.910;2022-09-29T10:05:25;9.45;;;6.13;;
21170;SDS011;10743;52.160;20.910;2022-09-29T10:08:15;10.85;;;6.20;;
21170;SDS011;10743;52.160;20.910;2022-09-29T10:10:54;6.95;;;5.50;;
21170;SDS011;10743;52.160;20.910;2022-09-29T10:13:25;7.85;;;5.88;;
21170;SDS011;10743;52.160;20.910;2022-09-29T10:18:50;8.20;;;5.43;;
21170;SDS011;10743;52.160;20.910;2022-09-29T10:21:21;10.05;;;6.22;;
21170;SDS011;10743;52.160;20.910;2022-09-29T10:23:52;9.02;;;6.30;;
21170;SDS011;10743;52.160;20.910;2022-09-29T10:26:21;11.07;;;6.57;;
21170;SDS011;10743;52.160;20.910;2022-09-29T10:29:00;9.57;;;6.35;;
21170;SDS011;10743;52.160;20.910;2022-09-29T10:31:31;9.30;;;6.30;;
21170;SDS011;10743;52.160;20.910;2022-09-29T10:34:12;7.68;;;5.43;;
21170;SDS011;10743;52.160;20.910;2022-09-29T10:36:53;9.73;;;5.63;;
21170;SDS011;10743;52.160;20.910;2022-09-29T10:39:32;7.70;;;5.82;;
21170;SDS011;10743;52.160;20.910;2022-09-29T10:42:16;10.65;;;6.22;;
21170;SDS011;10743;52.160;20.910;2022-09-29T10:47:45;9.25;;;6.05;;
21170;SDS011;10743;52.160;20.910;2022-09-29T10:50:19;11.50;;;6.05;;
21170;SDS011;10743;52.160;20.910;2022-09-29T10:55:22;8.18;;;5.90;;
21170;SDS011;10743;52.160;20.910;2022-09-29T10:57:54;8.90;;;6.13;;
21170;SDS011;10743;52.160;20.910;2022-09-29T11:00:25;9.52;;;6.07;;
21170;SDS011;10743;52.160;20.910;2022-09-29T11:03:05;10.82;;;6.10;;
21170;SDS011;10743;52.160;20.910;2022-09-29T11:05:53;9.95;;;6.53;;
21170;SDS011;10743;52.160;20.910;2022-09-29T11:08:24;9.82;;;7.35;;
21170;SDS011;10743;52.160;20.910;2022-09-29T11:13:49;11.57;;;6.05;;
21170;SDS011;10743;52.160;20.910;2022-09-29T11:16:22;9.98;;;6.22;;
21170;SDS011;10743;52.160;20.910;2022-09-29T11:18:57;9.00;;;6.60;;
21170;SDS011;10743;52.160;20.910;2022-09-29T11:27:36;11.07;;;7.10;;
21170;SDS011;10743;52.160;20.910;2022-09-29T11:30:25;9.23;;;6.30;;
21170;SDS011;10743;52.160;20.910;2022-09-29T11:36:32;8.82;;;6.32;;
21170;SDS011;10743;52.160;20.910;2022-09-29T11:50:45;9.40;;;6.57;;
21170;SDS011;10743;52.160;20.910;2022-09-29T11:53:49;8.90;;;6.68;;
21170;SDS011;10743;52.160;20.910;2022-09-29T12:02:20;10.60;;;7.07;;
21170;SDS011;10743;52.160;20.910;2022-09-29T12:05:53;11.68;;;7.63;;
21170;SDS011;10743;52.160;20.910;2022-09-29T12:18:09;10.15;;;7.30;;
21170;SDS011;10743;52.160;20.910;2022-09-29T12:20:41;25.42;;;15.13;;
21170;SDS011;10743;52.160;20.910;2022-09-29T12:23:11;13.05;;;8.68;;
21170;SDS011;10743;52.160;20.910;2022-09-29T12:25:45;12.63;;;8.18;;
21170;SDS011;10743;52.160;20.910;2022-09-29T12:28:45;11.05;;;7.03;;
21170;SDS011;10743;52.160;20.910;2022-09-29T12:31:23;12.98;;;7.82;;
21170;SDS011;10743;52.160;20.910;2022-09-29T12:33:58;17.33;;;8.98;;
21170;SDS011;10743;52.160;20.910;2022-09-29T12:39:39;14.10;;;8.55;;
21170;SDS011;10743;52.160;20.910;2022-09-29T12:42:21;11.57;;;7.88;;
21170;SDS011;10743;52.160;20.910;2022-09-29T12:45:30;9.63;;;6.82;;
21170;SDS011;10743;52.160;20.910;2022-09-29T12:48:25;9.90;;;6.50;;
21170;SDS011;10743;52.160;20.910;2022-09-29T12:51:24;10.13;;;6.68;;
21170;SDS011;10743;52.160;20.910;2022-09-29T12:54:18;11.23;;;6.60;;
21170;SDS011;10743;52.160;20.910;2022-09-29T12:59:38;7.60;;;5.65;;
21170;SDS011;10743;52.160;20.910;2022-09-29T13:05:43;7.88;;;5.75;;
21170;SDS011;10743;52.160;20.910;2022-09-29T13:08:33;7.50;;;5.63;;
21170;SDS011;10743;52.160;20.910;2022-09-29T13:11:37;9.63;;;6.97;;
21170;SDS011;10743;52.160;20.910;2022-09-29T13:17:27;8.80;;;6.13;;
21170;SDS011;10743;52.160;20.910;2022-09-29T13:20:24;8.40;;;5.88;;
21170;SDS011;10743;52.160;20.910;2022-09-29T13:26:14;9.38;;;6.60;;
21170;SDS011;10743;52.160;20.910;2022-09-29T13:29:09;10.13;;;6.97;;
21170;SDS011;10743;52.160;20.910;2022-09-29T13:31:52;8.90;;;6.68;;
21170;SDS011;10743;52.160;20.910;2022-09-29T13:37:16;9.57;;;6.93;;
21170;SDS011;10743;52.160;20.910;2022-09-29T13:39:54;11.57;;;7.00;;
21170;SDS011;10743;52.160;20.910;2022-09-29T13:42:43;10.52;;;7.13;;
21170;SDS011;10743;52.160;20.910;2022-09-29T13:47:49;8.95;;;7.03;;
21170;SDS011;10743;52.160;20.910;2022-09-29T13:53:32;10.25;;;7.28;;
21170;SDS011;10743;52.160;20.910;2022-09-29T13:58:32;10.90;;;7.40;;
21170;SDS011;10743;52.160;20.910;2022-09-29T14:01:09;11.68;;;7.22;;
21170;SDS011;10743;52.160;20.910;2022-09-29T14:03:41;9.00;;;7.05;;
21170;SDS011;10743;52.160;20.910;2022-09-29T14:06:14;9.52;;;7.03;;
21170;SDS011;10743;52.160;20.910;2022-09-29T14:09:07;9.32;;;7.00;;
21170;SDS011;10743;52.160;20.910;2022-09-29T14:14:22;11.05;;;7.55;;
21170;SDS011;10743;52.160;20.910;2022-09-29T14:16:54;8.27;;;6.75;;
21170;SDS011;10743;52.160;20.910;2022-09-29T14:22:55;13.30;;;7.13;;
21170;SDS011;10743;52.160;20.910;2022-09-29T14:25:32;11.57;;;6.43;;
21170;SDS011;10743;52.160;20.910;2022-09-29T14:28:06;11.15;;;6.70;;
21170;SDS011;10743;52.160;20.910;2022-09-29T14:30:40;9.02;;;6.65;;
21170;SDS011;10743;52.160;20.910;2022-09-29T14:33:23;8.20;;;6.40;;
21170;SDS011;10743;52.160;20.910;2022-09-29T14:36:01;10.32;;;7.05;;
21170;SDS011;10743;52.160;20.910;2022-09-29T14:38:44;8.85;;;6.40;;
21170;SDS011;10743;52.160;20.910;2022-09-29T14:41:42;11.30;;;6.55;;
21170;SDS011;10743;52.160;20.910;2022-09-29T14:44:16;9.35;;;6.50;;
21170;SDS011;10743;52.160;20.910;2022-09-29T14:47:18;9.70;;;6.70;;
21170;SDS011;10743;52.160;20.910;2022-09-29T14:50:32;10.80;;;6.65;;
21170;SDS011;10743;52.160;20.910;2022-09-29T14:56:13;8.77;;;6.70;;
21170;SDS011;10743;52.160;20.910;2022-09-29T14:59:00;9.80;;;6.30;;
21170;SDS011;10743;52.160;20.910;2022-09-29T15:01:59;9.05;;;6.38;;
21170;SDS011;10743;52.160;20.910;2022-09-29T15:04:49;10.65;;;6.97;;
21170;SDS011;10743;52.160;20.910;2022-09-29T15:07:17;9.65;;;6.75;;
21170;SDS011;10743;52.160;20.910;2022-09-29T15:09:54;8.43;;;6.35;;
21170;SDS011;10743;52.160;20.910;2022-09-29T15:12:28;10.77;;;6.90;;
21170;SDS011;10743;52.160;20.910;2022-09-29T15:14:57;8.75;;;6.40;;
21170;SDS011;10743;52.160;20.910;2022-09-29T15:21:11;10.27;;;6.00;;
21170;SDS011;10743;52.160;20.910;2022-09-29T15:24:36;9.75;;;6.50;;
21170;SDS011;10743;52.160;20.910;2022-09-29T15:27:05;15.68;;;7.60;;
21170;SDS011;10743;52.160;20.910;2022-09-29T15:29:39;9.32;;;6.70;;
21170;SDS011;10743;52.160;20.910;2022-09-29T15:32:15;10.45;;;6.38;;
21170;SDS011;10743;52.160;20.910;2022-09-29T15:34:58;10.90;;;6.53;;
21170;SDS011;10743;52.160;20.910;2022-09-29T15:37:41;10.02;;;6.70;;
21170;SDS011;10743;52.160;20.910;2022-09-29T15:40:19;9.82;;;7.10;;
21170;SDS011;10743;52.160;20.910;2022-09-29T15:42:49;11.70;;;7.47;;
21170;SDS011;10743;52.160;20.910;2022-09-29T15:45:22;18.63;;;7.93;;
21170;SDS011;10743;52.160;20.910;2022-09-29T15:47:57;16.10;;;7.63;;
21170;SDS011;10743;52.160;20.910;2022-09-29T15:50:30;20.42;;;8.55;;
21170;SDS011;10743;52.160;20.910;2022-09-29T15:53:01;19.58;;;8.85;;
21170;SDS011;10743;52.160;20.910;2022-09-29T15:55:29;15.15;;;8.43;;
21170;SDS011;10743;52.160;20.910;2022-09-29T15:57:57;19.73;;;8.77;;
21170;SDS011;10743;52.160;20.910;2022-09-29T16:06:16;12.57;;;7.88;;
21170;SDS011;10743;52.160;20.910;2022-09-29T16:09:02;16.67;;;7.82;;
21170;SDS011;10743;52.160;20.910;2022-09-29T16:11:34;11.48;;;8.18;;
21170;SDS011;10743;52.160;20.910;2022-09-29T16:14:18;15.18;;;8.40;;
21170;SDS011;10743;52.160;20.910;2022-09-29T16:16:49;11.70;;;7.88;;
21170;SDS011;10743;52.160;20.910;2022-09-29T16:19:26;14.90;;;8.50;;
21170;SDS011;10743;52.160;20.910;2022-09-29T16:21:57;17.60;;;8.40;;
21170;SDS011;10743;52.160;20.910;2022-09-29T16:24:33;11.63;;;8.35;;
21170;SDS011;10743;52.160;20.910;2022-09-29T16:27:02;12.50;;;8.63;;
21170;SDS011;10743;52.160;20.910;2022-09-29T16:29:34;18.02;;;10.73;;
21170;SDS011;10743;52.160;20.910;2022-09-29T16:49:35;90.03;;;39.55;;
21170;SDS011;10743;52.160;20.910;2022-09-29T16:52:16;93.97;;;42.67;;
21170;SDS011;10743;52.160;20.910;2022-09-29T16:57:57;78.90;;;36.47;;
21170;SDS011;10743;52.160;20.910;2022-09-29T17:00:38;63.33;;;31.10;;
21170;SDS011;10743;52.160;20.910;2022-09-29T17:03:06;63.78;;;31.85;;
21170;SDS011;10743;52.160;20.910;2022-09-29T17:05:35;68.85;;;35.00;;
21170;SDS011;10743;52.160;20.910;2022-09-29T17:08:11;63.77;;;33.13;;
21170;SDS011;10743;52.160;20.910;2022-09-29T17:10:50;62.90;;;32.33;;
21170;SDS011;10743;52.160;20.910;2022-09-29T17:13:20;59.17;;;31.42;;
21170;SDS011;10743;52.160;20.910;2022-09-29T17:15:49;53.00;;;28.75;;
21170;SDS011;10743;52.160;20.910;2022-09-29T17:18:18;49.47;;;25.70;;
21170;SDS011;10743;52.160;20.910;2022-09-29T17:20:46;45.73;;;24.27;;
21170;SDS011;10743;52.160;20.910;2022-09-29T17:23:13;49.40;;;25.50;;
21170;SDS011;10743;52.160;20.910;2022-09-29T17:25:40;49.83;;;26.00;;
21170;SDS011;10743;52.160;20.910;2022-09-29T17:28:12;68.40;;;29.47;;
21170;SDS011;10743;52.160;20.910;2022-09-29T17:30:49;94.25;;;37.22;;
21170;SDS011;10743;52.160;20.910;2022-09-29T17:33:17;87.63;;;38.20;;
21170;SDS011;10743;52.160;20.910;2022-09-29T17:35:48;79.20;;;35.17;;
21170;SDS011;10743;52.160;20.910;2022-09-29T17:38:21;78.10;;;35.20;;
21170;SDS011;10743;52.160;20.910;2022-09-29T17:43:27;77.40;;;35.77;;
21170;SDS011;10743;52.160;20.910;2022-09-29T17:45:57;83.80;;;38.90;;
21170;SDS011;10743;52.160;20.910;2022-09-29T17:48:25;86.10;;;39.53;;